Tropical Cyclones
[Index]
Main Index Home Page Stock Weather Photos Extreme Storms Discussion Storm News and Storm Chasing Reports Tropical Cyclones / Hurricanes / Typhoons Weather Data and Links Wild Fires / Bushfires Weather Observation Techniques Weather Picture Catalogue Tornado Pictures and Reports Stock Video Footage and DVDs for sale
Season 1990-1991 Tropical Cyclone BELLA Track Map
Season 1990-1991 Summaries: [BoM-AU] [JTWC-AU] [JTWC-SIO] [JTWC-SPAC] [JTWC-SH]
<<- Previous TC | JTWC 1990-1991 Season | Next TC ->>

click for intensity scale information  Lat/long Grid: Show Hide

 Date Labels: Show Hide

Joint Typhoon Warning Centre Cyclone Data

Name: BELLA

13 Jan 1991 00:00 UTC to 04 Feb 1991 18:00 UTC

    date/time    lat    long     hPa   cat  kts
1991-01-13 00    4.4    95.5                  20          
1991-01-13 06    4.6    95.5                  20          
1991-01-13 12    4.9    95.5                  20          
1991-01-13 18    5.2    95.5                  25          
1991-01-14 00    5.4    95.4                  25          
1991-01-14 06    5.6    95.2                  25          
1991-01-14 12    5.8    95.0                  25          
1991-01-14 18    6.0    94.7                  25          
1991-01-15 00    6.2    94.2                  20          
1991-01-15 06    6.3    93.7                  20          
1991-01-15 12    6.4    93.1                  15          
1991-01-15 18    6.5    92.4                  15          
1991-01-16 00    6.8    91.6                  15          
1991-01-16 06    7.1    91.0                  15          
1991-01-16 12    7.4    90.5                  15          
1991-01-16 18    7.6    90.0                  15          
1991-01-17 00    7.8    89.6                  15          
1991-01-17 06    8.1    89.2                  20          
1991-01-17 12    8.2    88.6                  20          
1991-01-17 18    8.4    87.9                  20          
1991-01-18 00    8.8    87.3                  20          
1991-01-18 06    9.1    86.5                  20          
1991-01-18 12    9.3    85.8                  20          
1991-01-18 18    9.4    85.2                  25          
1991-01-19 00    9.4    84.5                  25          
1991-01-19 06    9.5    83.7                  25          
1991-01-19 12    9.6    82.3                  30          
1991-01-19 18    9.6    82.3                  30          
1991-01-20 00    9.9    81.8                  30          
1991-01-20 06   10.4    81.8                  30          
1991-01-20 12   11.1    81.9                  30          
1991-01-20 18   11.9    82.2                  30          
1991-01-21 00   12.6    82.5                  30          
1991-01-21 06   13.3    82.7                  30          
1991-01-21 12   13.9    82.6                  30          
1991-01-21 18   14.3    82.3                  30          
1991-01-22 00   14.4    81.8                  30          
1991-01-22 06   14.5    81.3                  30          
1991-01-22 12   14.5    80.7                  30          
1991-01-22 18   14.4    80.2                  30          
1991-01-23 00   14.4    79.7                  35          
1991-01-23 06   14.3    79.0                  35          
1991-01-23 12   14.2    78.1                  35          
1991-01-23 18   14.2    77.1            1     40          
1991-01-24 00   14.1    76.0            1     40          
1991-01-24 06   14.1    74.9            1     45          
1991-01-24 12   14.2    73.7            1     45          
1991-01-24 18   14.3    72.6            1     45          
1991-01-25 00   14.5    71.5            1     45          
1991-01-25 06   14.7    70.4            1     40          
1991-01-25 12   15.0    69.3            1     40          
1991-01-25 18   15.3    68.4            1     40          
1991-01-26 00   15.6    67.6            1     40          
1991-01-26 06   16.0    67.2            1     40          
1991-01-26 12   16.3    66.9            1     40          
1991-01-26 18   16.6    66.8            1     40          
1991-01-27 00   16.8    66.5            1     45          
1991-01-27 06   17.1    66.2            1     50          
1991-01-27 12   17.2    65.9            2     55          
1991-01-27 18   17.3    65.5            2     60          
1991-01-28 00   17.4    65.2            2     65          
1991-01-28 06   17.3    64.9            2     70          
1991-01-28 12   17.3    64.5            3     75          
1991-01-28 18   17.2    64.0            3     85          
1991-01-29 00   17.2    63.3            3     95          
1991-01-29 06   17.3    62.7            4    105          
1991-01-29 12   17.4    62.2            4    120          
1991-01-29 18   17.7    61.8            5    130          
1991-01-30 00   18.0    61.7            5    130          
1991-01-30 06   18.2    61.6            5    125          
1991-01-30 12   18.5    61.8            4    120          
1991-01-30 18   18.8    62.4            4    110          
1991-01-31 00   19.4    62.9            4    110          
1991-01-31 06   20.1    63.3            4    100          
1991-01-31 12   20.9    63.5            3     85          
1991-01-31 18   21.7    63.5            3     75          
1991-02-01 00   22.4    63.5            2     65          
1991-02-01 06   23.1    63.5            2     60          
1991-02-01 12   23.8    63.0            2     55          
1991-02-01 18   24.4    62.5            1     50          
1991-02-02 00   25.1    62.1            1     50          
1991-02-02 06   25.9    61.6            1     45          
1991-02-02 12   26.9    61.3            1     45          
1991-02-02 18   28.1    61.1            1     45          
1991-02-03 00   29.4    60.8            1     45          
1991-02-03 06   30.8    60.6            1     40          
1991-02-03 12   32.1    60.7            1     40          
1991-02-03 18   33.1    61.6                  35          
1991-02-04 00   34.1    62.6                  35          
1991-02-04 06   34.9    63.8                  30          
1991-02-04 12   35.7    65.1                  30          
1991-02-04 18   36.1    66.7                  25          
Winds are 1-min average.

Tropical cyclone tracks developed by Michael Bath using data from the Joint Typhoon Warning Centre Best Tracks and Google Maps.


[Australian Severe Weather index] [Copyright Notice] [Email Contacts] [Search This Site] [Privacy Policy]
Document: tropical_cyclone_bella.htm Updated: 18 September 2016